N3475M KEXX-KVUJ
Flight info
| Callsign | N3475M |
|---|---|
| Flight time | 0h 13m |
| Altitude | 4000 |
| Route | ALLER |
| Aircraft | BE58/L-SDFGRY/C |
Departure
| Time | 2026-05-06 18:04 |
|---|---|
| Airport | Davidson County Executive Airport (KEXX) |
Arrival
| Time | 2026-05-06 18:17 |
|---|---|
| Airport | Stanly County Airport (KVUJ) |
| Time | Latitude | Longitude | Altitude | Speed | Heading |
|---|---|---|---|---|---|
| 2026-05-06 18:02 | 35.78498 | -80.29806 | 705 ft | 0 kts | 230° |
| 2026-05-06 18:04 | 35.78360 | -80.30009 | 713 ft | 69 kts | 229° |
| 2026-05-06 18:04 | 35.77962 | -80.30585 | 917 ft | 97 kts | 228° |
| 2026-05-06 18:04 | 35.77508 | -80.31177 | 1337 ft | 101 kts | 227° |
| 2026-05-06 18:05 | 35.77004 | -80.31920 | 1515 ft | 123 kts | 229° |
| 2026-05-06 18:05 | 35.76235 | -80.32432 | 1690 ft | 137 kts | 181° |
| 2026-05-06 18:05 | 35.75256 | -80.32306 | 1855 ft | 146 kts | 173° |
| 2026-05-06 18:05 | 35.74330 | -80.31766 | 2006 ft | 154 kts | 141° |
| 2026-05-06 18:06 | 35.73600 | -80.30962 | 2632 ft | 124 kts | 142° |
| 2026-05-06 18:06 | 35.73034 | -80.30382 | 3313 ft | 90 kts | 152° |
| 2026-05-06 18:06 | 35.72488 | -80.29852 | 3554 ft | 108 kts | 154° |
| 2026-05-06 18:06 | 35.71855 | -80.29254 | 3807 ft | 120 kts | 154° |
| 2026-05-06 18:07 | 35.71174 | -80.28627 | 4065 ft | 124 kts | 156° |
| 2026-05-06 18:07 | 35.70465 | -80.27981 | 4329 ft | 130 kts | 154° |
| 2026-05-06 18:07 | 35.69731 | -80.27308 | 4592 ft | 133 kts | 155° |
| 2026-05-06 18:07 | 35.68980 | -80.26621 | 4849 ft | 136 kts | 155° |
| 2026-05-06 18:08 | 35.68212 | -80.25921 | 5001 ft | 143 kts | 156° |
| 2026-05-06 18:08 | 35.67373 | -80.25162 | 5013 ft | 154 kts | 154° |
| 2026-05-06 18:08 | 35.66483 | -80.24351 | 5017 ft | 163 kts | 153° |
| 2026-05-06 18:08 | 35.65558 | -80.23504 | 5019 ft | 169 kts | 153° |
| 2026-05-06 18:09 | 35.64606 | -80.22630 | 5018 ft | 172 kts | 153° |
| 2026-05-06 18:09 | 35.63637 | -80.21745 | 5022 ft | 174 kts | 153° |
| 2026-05-06 18:09 | 35.62661 | -80.20853 | 5027 ft | 175 kts | 152° |
| 2026-05-06 18:09 | 35.61680 | -80.19961 | 5028 ft | 175 kts | 153° |
| 2026-05-06 18:10 | 35.60709 | -80.19075 | 5039 ft | 174 kts | 153° |
| 2026-05-06 18:10 | 35.59746 | -80.18191 | 5039 ft | 176 kts | 153° |
| 2026-05-06 18:10 | 35.58758 | -80.17291 | 5042 ft | 177 kts | 153° |
| 2026-05-06 18:10 | 35.57767 | -80.16394 | 5036 ft | 177 kts | 153° |
| 2026-05-06 18:11 | 35.56777 | -80.15490 | 5039 ft | 177 kts | 153° |
| 2026-05-06 18:11 | 35.56133 | -80.14831 | 5037 ft | 183 kts | 140° |
| 2026-05-06 18:11 | 35.55348 | -80.12957 | 4945 ft | 184 kts | 121° |
| 2026-05-06 18:11 | 35.54863 | -80.11544 | 4829 ft | 176 kts | 120° |
| 2026-05-06 18:12 | 35.54391 | -80.10155 | 4522 ft | 180 kts | 121° |
| 2026-05-06 18:12 | 35.53891 | -80.08711 | 4152 ft | 186 kts | 120° |
| 2026-05-06 18:12 | 35.53545 | -80.07737 | 3913 ft | 188 kts | 121° |
| 2026-05-06 18:12 | 35.52712 | -80.06609 | 3538 ft | 174 kts | 160° |
| 2026-05-06 18:13 | 35.51632 | -80.06123 | 3159 ft | 155 kts | 179° |
| 2026-05-06 18:13 | 35.50750 | -80.06453 | 3053 ft | 121 kts | 223° |
| 2026-05-06 18:13 | 35.50140 | -80.07055 | 3048 ft | 109 kts | 218° |
| 2026-05-06 18:13 | 35.49592 | -80.07573 | 2980 ft | 92 kts | 219° |
| 2026-05-06 18:14 | 35.49074 | -80.08008 | 2811 ft | 90 kts | 217° |
| 2026-05-06 18:14 | 35.48618 | -80.08450 | 2773 ft | 81 kts | 219° |
| 2026-05-06 18:14 | 35.48143 | -80.08879 | 2565 ft | 83 kts | 219° |
| 2026-05-06 18:14 | 35.47664 | -80.09254 | 2369 ft | 86 kts | 202° |
| 2026-05-06 18:15 | 35.47203 | -80.09676 | 2226 ft | 80 kts | 223° |
| 2026-05-06 18:15 | 35.46783 | -80.10115 | 2278 ft | 75 kts | 218° |
| 2026-05-06 18:15 | 35.46322 | -80.10533 | 2147 ft | 88 kts | 218° |
| 2026-05-06 18:15 | 35.45798 | -80.11025 | 1947 ft | 97 kts | 219° |
| 2026-05-06 18:16 | 35.45252 | -80.11565 | 1624 ft | 104 kts | 220° |
| 2026-05-06 18:16 | 35.44682 | -80.12141 | 1281 ft | 111 kts | 220° |
| 2026-05-06 18:16 | 35.44092 | -80.12706 | 1107 ft | 100 kts | 218° |
| 2026-05-06 18:16 | 35.43562 | -80.13224 | 933 ft | 96 kts | 219° |
| 2026-05-06 18:17 | 35.43042 | -80.13688 | 796 ft | 87 kts | 216° |
| 2026-05-06 18:17 | 35.42564 | -80.14132 | 696 ft | 85 kts | 219° |
| 2026-05-06 18:17 | 35.42114 | -80.14559 | 599 ft | 75 kts | 216° |
| 2026-05-06 18:17 | 35.41791 | -80.14855 | 589 ft | 45 kts | 217° |
| 2026-05-06 18:18 | 35.41575 | -80.15055 | 593 ft | 34 kts | 216° |
| 2026-05-06 18:18 | 35.41416 | -80.15200 | 601 ft | 23 kts | 208° |
| 2026-05-06 18:18 | 35.41346 | -80.15140 | 603 ft | 12 kts | 71° |
| 2026-05-06 18:18 | 35.41405 | -80.15071 | 600 ft | 12 kts | 37° |
| 2026-05-06 18:19 | 35.41480 | -80.15006 | 596 ft | 14 kts | 37° |
| 2026-05-06 18:19 | 35.41558 | -80.14934 | 594 ft | 14 kts | 37° |
| 2026-05-06 18:19 | 35.41630 | -80.14866 | 593 ft | 13 kts | 36° |
| 2026-05-06 18:19 | 35.41716 | -80.14786 | 590 ft | 21 kts | 38° |
| 2026-05-06 18:20 | 35.41831 | -80.14681 | 590 ft | 19 kts | 39° |
| 2026-05-06 18:20 | 35.41933 | -80.14587 | 587 ft | 18 kts | 38° |
| 2026-05-06 18:20 | 35.42029 | -80.14496 | 585 ft | 17 kts | 34° |
| 2026-05-06 18:20 | 35.42070 | -80.14466 | 584 ft | 0 kts | 355° |